Time;durP1;ratioP1;P1;durP2;ratioP2;P2;SDS_P1;SDS_P2;PMS_P1;PMS_P2;Temp;Humidity;BMP_temperature;BMP_pressure;BME280_temperature;BME280_humidity;BME280_pressure;Samples;Min_cycle;Max_cycle;Signal;HPM_P1;HPM_P2
2024/03/29 01:45:09;;;;;;;1.10;1.00;;;9.50;99.90;;;;;;5115617;28;20196;-63
2024/03/29 01:47:36;;;;;;;1.47;1.10;;;9.50;99.90;;;;;;5116579;28;20854;-63
2024/03/29 01:50:03;;;;;;;1.23;1.10;;;9.60;99.90;;;;;;5116716;28;20444;-62
2024/03/29 01:52:30;;;;;;;1.83;1.00;;;9.50;99.90;;;;;;5116699;28;20441;-62
2024/03/29 01:54:57;;;;;;;1.70;1.20;;;9.50;99.90;;;;;;5115706;28;20556;-63
2024/03/29 01:57:24;;;;;;;1.70;1.30;;;9.50;99.90;;;;;;5116164;28;20444;-62
2024/03/29 01:59:52;;;;;;;1.23;1.13;;;9.50;99.90;;;;;;5116372;28;20449;-62
2024/03/29 02:02:19;;;;;;;3.73;2.60;;;9.50;99.90;;;;;;5116263;28;20441;-62
2024/03/29 02:04:46;;;;;;;1.23;1.10;;;9.50;99.90;;;;;;5116267;27;20506;-63
2024/03/29 02:07:13;;;;;;;1.30;1.20;;;9.50;99.90;;;;;;5116075;28;20441;-62
2024/03/29 02:09:40;;;;;;;1.63;1.10;;;9.40;99.90;;;;;;5116009;28;20537;-62
2024/03/29 02:12:08;;;;;;;1.67;1.20;;;9.40;99.90;;;;;;5116198;28;20444;-63
2024/03/29 02:14:33;;;;;;;1.30;1.03;;;9.30;99.90;;;;;;5116029;28;20568;-62
2024/03/29 02:17:01;;;;;;;1.00;0.90;;;9.30;99.90;;;;;;5115799;28;21012;-62
2024/03/29 02:19:27;;;;;;;2.13;1.17;;;9.30;99.90;;;;;;5115965;28;20695;-62
2024/03/29 02:22:00;;;;;;;2.27;1.30;;;9.30;99.90;;;;;;5115904;28;20446;-62
2024/03/29 02:24:27;;;;;;;1.60;1.50;;;9.30;99.90;;;;;;5115715;28;20536;-62
2024/03/29 02:26:55;;;;;;;1.80;1.70;;;9.20;99.90;;;;;;5115826;28;20484;-62
2024/03/29 02:29:22;;;;;;;1.27;1.17;;;9.00;99.90;;;;;;5116192;28;20534;-64
2024/03/29 02:31:48;;;;;;;2.73;1.50;;;9.10;99.90;;;;;;5115840;28;20851;-62
2024/03/29 02:34:15;;;;;;;1.50;1.40;;;9.10;99.90;;;;;;5115496;28;20472;-61
2024/03/29 02:36:43;;;;;;;1.70;1.60;;;8.90;99.90;;;;;;5115451;27;20536;-62
2024/03/29 02:39:10;;;;;;;2.73;1.97;;;8.90;99.90;;;;;;5115914;28;20520;-62
2024/03/29 02:41:37;;;;;;;1.70;1.60;;;8.90;99.90;;;;;;5115617;28;20446;-61
2024/03/29 02:44:04;;;;;;;2.13;1.60;;;9.00;99.90;;;;;;5115453;28;20542;-62
2024/03/29 02:46:29;;;;;;;3.10;2.03;;;9.00;99.90;;;;;;5115232;28;20453;-61
2024/03/29 02:48:56;;;;;;;1.77;1.67;;;9.00;99.90;;;;;;5115344;28;20512;-62
2024/03/29 02:51:21;;;;;;;1.43;1.33;;;9.00;99.90;;;;;;5115218;28;20626;-62
2024/03/29 02:53:48;;;;;;;2.40;2.00;;;9.00;99.90;;;;;;5115368;28;20573;-61
2024/03/29 02:56:18;;;;;;;2.87;1.73;;;9.10;99.90;;;;;;5115332;28;20278;-61
2024/03/29 02:58:46;;;;;;;1.60;1.50;;;9.00;99.90;;;;;;5115270;28;20484;-62
2024/03/29 03:01:12;;;;;;;1.93;1.40;;;9.10;99.90;;;;;;5115120;28;20441;-62
2024/03/29 03:03:38;;;;;;;1.87;1.60;;;9.10;99.90;;;;;;5115262;28;20822;-61
2024/03/29 03:06:05;;;;;;;2.97;1.80;;;9.10;99.90;;;;;;5113987;28;20271;-61
2024/03/29 03:11:16;;;;;;;2.17;1.80;;;9.10;99.90;;;;;;5115190;28;20467;-62
2024/03/29 03:13:42;;;;;;;4.30;1.93;;;9.10;99.90;;;;;;5114969;28;20537;-62
2024/03/29 03:16:10;;;;;;;2.43;2.00;;;9.10;99.90;;;;;;5114989;28;21008;-62
2024/03/29 03:18:35;;;;;;;3.30;1.90;;;9.10;99.90;;;;;;5114598;28;20998;-62
2024/03/29 03:21:02;;;;;;;2.10;1.70;;;9.00;99.90;;;;;;5114813;28;20541;-61
2024/03/29 03:23:28;;;;;;;2.17;1.40;;;9.00;99.90;;;;;;5114560;28;20655;-62
2024/03/29 03:25:55;;;;;;;2.67;1.70;;;8.90;99.90;;;;;;5114604;28;20545;-61
2024/03/29 03:28:21;;;;;;;2.40;1.83;;;8.90;99.90;;;;;;5114823;28;20196;-61
2024/03/29 03:30:47;;;;;;;1.93;1.77;;;9.00;99.90;;;;;;5114378;28;20454;-62
2024/03/29 03:33:15;;;;;;;2.07;1.87;;;8.90;99.90;;;;;;5114315;28;20525;-62
2024/03/29 03:35:41;;;;;;;2.77;1.70;;;8.90;99.90;;;;;;5114471;28;20486;-61
2024/03/29 03:38:08;;;;;;;2.07;1.60;;;8.90;99.90;;;;;;5114431;28;20484;-62
2024/03/29 03:40:34;;;;;;;2.60;1.90;;;8.90;99.90;;;;;;5114359;28;20485;-61
2024/03/29 03:43:01;;;;;;;4.10;1.73;;;8.90;99.90;;;;;;5114206;28;20448;-62
2024/03/29 03:45:27;;;;;;;6.60;1.87;;;8.90;99.90;;;;;;5114004;28;20489;-62
2024/03/29 03:47:53;;;;;;;2.23;1.57;;;8.90;99.90;;;;;;5114343;28;20465;-62
2024/03/29 03:50:21;;;;;;;2.20;2.10;;;8.90;99.90;;;;;;5114245;28;20493;-61
2024/03/29 03:52:46;;;;;;;2.53;1.80;;;8.90;99.90;;;;;;5114226;28;20555;-62
2024/03/29 03:55:13;;;;;;;1.80;1.70;;;8.90;99.90;;;;;;5113946;28;20572;-61
2024/03/29 03:57:38;;;;;;;2.40;1.83;;;8.90;99.90;;;;;;5114077;28;20219;-62
2024/03/29 04:00:06;;;;;;;1.80;1.70;;;8.90;99.90;;;;;;5113908;28;20445;-62
2024/03/29 04:02:31;;;;;;;2.90;2.03;;;8.80;99.90;;;;;;5114049;28;20282;-62
2024/03/29 04:04:58;;;;;;;2.63;2.43;;;8.80;99.90;;;;;;5114048;28;20496;-62
2024/03/29 04:07:25;;;;;;;2.00;1.90;;;8.80;99.90;;;;;;5113882;28;20215;-61
2024/03/29 04:09:52;;;;;;;3.07;2.33;;;8.80;99.90;;;;;;5113789;28;20830;-62
2024/03/29 04:12:17;;;;;;;2.40;2.00;;;8.60;99.90;;;;;;5113832;28;20438;-61
2024/03/29 04:14:44;;;;;;;5.00;1.43;;;8.60;99.90;;;;;;5113798;28;20462;-62
2024/03/29 04:17:10;;;;;;;2.27;1.43;;;8.70;99.90;;;;;;5113643;28;20188;-61
2024/03/29 04:19:36;;;;;;;2.30;2.10;;;8.50;99.90;;;;;;5113647;28;20560;-61
2024/03/29 04:22:02;;;;;;;2.10;1.90;;;8.50;99.90;;;;;;5113711;28;20191;-62
2024/03/29 04:24:30;;;;;;;1.60;1.50;;;8.50;99.90;;;;;;5113699;28;20860;-61
2024/03/29 04:26:57;;;;;;;1.87;1.77;;;8.50;99.90;;;;;;5113558;28;20639;-62
2024/03/29 04:29:24;;;;;;;1.93;1.70;;;8.60;99.90;;;;;;5113393;28;20948;-61
2024/03/29 04:31:49;;;;;;;2.30;1.73;;;8.50;99.90;;;;;;5113879;28;20455;-62
2024/03/29 04:34:16;;;;;;;2.57;2.20;;;8.50;99.90;;;;;;5113457;28;20526;-62
2024/03/29 04:36:42;;;;;;;1.90;1.40;;;8.60;99.90;;;;;;5113599;28;20286;-62
2024/03/29 04:39:09;;;;;;;2.27;1.50;;;8.50;99.90;;;;;;5113440;28;20525;-61
2024/03/29 04:41:36;;;;;;;1.70;1.60;;;8.30;99.90;;;;;;5113324;28;21020;-61
2024/03/29 04:44:04;;;;;;;2.13;1.53;;;8.20;99.90;;;;;;5113553;28;20473;-61
2024/03/29 04:46:31;;;;;;;2.10;1.90;;;8.10;99.90;;;;;;5113315;28;20470;-61
2024/03/29 04:48:58;;;;;;;2.17;1.70;;;7.90;99.90;;;;;;5113470;28;20487;-62
2024/03/29 04:51:25;;;;;;;1.60;1.50;;;8.00;99.90;;;;;;5113429;28;20469;-62
2024/03/29 04:53:51;;;;;;;2.23;1.87;;;8.10;99.90;;;;;;5113230;28;20533;-61
2024/03/29 04:56:17;;;;;;;2.20;1.80;;;7.90;99.90;;;;;;5113458;28;20442;-61
2024/03/29 04:58:46;;;;;;;1.77;1.67;;;8.00;99.90;;;;;;5113468;28;20549;-62
2024/03/29 05:01:13;;;;;;;3.10;1.60;;;8.00;99.90;;;;;;5113345;28;20192;-61
2024/03/29 05:03:39;;;;;;;3.40;1.97;;;7.80;99.90;;;;;;5113277;28;20529;-61
2024/03/29 05:06:06;;;;;;;2.60;1.30;;;7.90;99.90;;;;;;5113325;28;20876;-61
2024/03/29 05:08:32;;;;;;;3.23;1.57;;;8.00;99.90;;;;;;5113153;28;20536;-61
2024/03/29 05:10:59;;;;;;;1.77;1.30;;;7.90;99.90;;;;;;5113070;28;20532;-61
2024/03/29 05:13:25;;;;;;;2.70;1.80;;;7.90;99.90;;;;;;5113252;28;20525;-61
2024/03/29 05:15:53;;;;;;;2.27;1.20;;;7.80;99.90;;;;;;5113138;28;20481;-61
2024/03/29 05:18:19;;;;;;;2.40;1.43;;;7.90;99.90;;;;;;5113211;28;20452;-62
2024/03/29 05:20:50;;;;;;;2.10;1.30;;;8.00;99.90;;;;;;5113163;28;20473;-61
2024/03/29 05:23:17;;;;;;;2.03;1.43;;;8.10;99.90;;;;;;5113085;28;20449;-62
2024/03/29 05:25:43;;;;;;;2.13;1.40;;;8.10;99.90;;;;;;5112992;28;20565;-61
2024/03/29 05:28:10;;;;;;;2.73;1.70;;;7.90;99.90;;;;;;5113394;28;20499;-61
2024/03/29 05:30:37;;;;;;;1.93;1.00;;;7.90;99.90;;;;;;5115695;28;20854;-62
2024/03/29 05:33:06;;;;;;;3.57;1.40;;;8.00;99.90;;;;;;5116888;28;20469;-61
2024/03/29 05:35:33;;;;;;;2.23;1.30;;;8.10;99.90;;;;;;5116692;28;20530;-61
2024/03/29 05:37:59;;;;;;;1.40;1.10;;;8.20;99.90;;;;;;5116639;28;20975;-62
2024/03/29 05:40:27;;;;;;;1.13;1.03;;;8.20;99.90;;;;;;5117077;28;20441;-62
2024/03/29 05:42:54;;;;;;;2.30;1.43;;;8.30;99.90;;;;;;5116702;28;20536;-61
2024/03/29 05:45:26;;;;;;;1.70;1.60;;;8.40;99.90;;;;;;5116823;28;20446;-61
2024/03/29 05:47:53;;;;;;;1.70;1.60;;;8.40;99.90;;;;;;5116632;28;20446;-62
2024/03/29 05:50:21;;;;;;;3.83;1.60;;;8.50;99.90;;;;;;5116505;28;20445;-61
2024/03/29 05:52:47;;;;;;;3.33;1.30;;;8.50;99.90;;;;;;5116372;28;20464;-61
2024/03/29 05:55:14;;;;;;;2.13;1.40;;;8.40;99.90;;;;;;5116418;28;20525;-61
2024/03/29 05:57:44;;;;;;;2.30;1.00;;;8.40;99.90;;;;;;5116425;28;20445;-62
2024/03/29 06:00:13;;;;;;;1.63;1.20;;;8.40;99.90;;;;;;5116367;28;20456;-61
2024/03/29 06:02:39;;;;;;;2.83;1.47;;;8.40;99.90;;;;;;5116514;28;20532;-61
2024/03/29 06:05:07;;;;;;;1.30;1.00;;;8.40;99.90;;;;;;5116190;28;20450;-61
2024/03/29 06:07:34;;;;;;;3.20;1.40;;;8.50;99.90;;;;;;5116269;28;20524;-61
2024/03/29 06:10:03;;;;;;;1.67;1.17;;;8.50;99.90;;;;;;5116192;28;20624;-61
2024/03/29 06:12:30;;;;;;;4.00;1.07;;;8.60;99.90;;;;;;5116081;28;20442;-62
2024/03/29 06:17:40;;;;;;;2.93;1.17;;;8.50;99.90;;;;;;5115918;28;20780;-61
2024/03/29 06:20:08;;;;;;;3.97;1.30;;;8.50;99.90;;;;;;5116049;28;20520;-61
2024/03/29 06:22:36;;;;;;;1.50;1.00;;;8.50;99.90;;;;;;5115936;28;20528;-61
2024/03/29 06:25:04;;;;;;;2.70;1.20;;;8.50;99.90;;;;;;5115850;28;20480;-62
2024/03/29 06:27:31;;;;;;;1.67;1.43;;;8.70;99.90;;;;;;5116076;28;20809;-61
2024/03/29 06:29:57;;;;;;;6.07;1.37;;;8.80;99.90;;;;;;5115816;28;20849;-62
2024/03/29 06:32:24;;;;;;;1.00;0.90;;;8.80;99.90;;;;;;5115499;28;20438;-62
2024/03/29 06:34:51;;;;;;;1.30;1.20;;;9.00;99.90;;;;;;5115697;28;20465;-61
2024/03/29 06:37:17;;;;;;;1.30;1.00;;;9.20;99.90;;;;;;5115724;28;20496;-62
2024/03/29 06:39:45;;;;;;;2.10;1.20;;;9.30;99.90;;;;;;5115553;28;20449;-62
2024/03/29 06:42:12;;;;;;;2.33;1.87;;;9.40;99.90;;;;;;5115332;28;20438;-62
2024/03/29 06:44:38;;;;;;;1.60;1.03;;;9.60;99.90;;;;;;5115524;28;20476;-62
2024/03/29 06:47:05;;;;;;;2.63;1.20;;;9.60;99.90;;;;;;5115387;28;20497;-61
2024/03/29 06:49:33;;;;;;;2.03;1.10;;;9.60;99.90;;;;;;5115480;28;20463;-61
2024/03/29 06:52:01;;;;;;;5.07;1.77;;;9.50;99.90;;;;;;5115410;28;20444;-61
2024/03/29 06:54:27;;;;;;;1.10;0.90;;;9.70;99.90;;;;;;5115234;28;20498;-62
2024/03/29 06:56:56;;;;;;;3.83;1.00;;;9.80;99.90;;;;;;5115187;28;20824;-62
2024/03/29 06:59:22;;;;;;;2.60;1.10;;;9.90;99.90;;;;;;5115055;28;21031;-62
2024/03/29 07:01:51;;;;;;;1.53;1.33;;;10.00;99.90;;;;;;5115256;28;20444;-62
2024/03/29 07:04:19;;;;;;;2.10;1.27;;;10.10;99.90;;;;;;5115189;28;20437;-62
2024/03/29 07:06:47;;;;;;;2.23;1.20;;;10.30;99.90;;;;;;5115020;28;20499;-62
2024/03/29 07:09:14;;;;;;;2.53;1.17;;;10.50;99.90;;;;;;5115006;28;20790;-62
2024/03/29 07:11:40;;;;;;;2.47;1.30;;;10.50;99.90;;;;;;5114782;28;20533;-62
2024/03/29 07:14:08;;;;;;;1.40;1.30;;;10.60;99.90;;;;;;5115062;28;20467;-62
2024/03/29 07:16:35;;;;;;;2.30;1.03;;;10.80;99.90;;;;;;5114772;28;20489;-62
2024/03/29 07:19:02;;;;;;;1.70;1.20;;;10.90;99.90;;;;;;5114701;28;20983;-62
2024/03/29 07:21:29;;;;;;;3.50;1.30;;;11.10;99.90;;;;;;5114904;28;20463;-62
2024/03/29 07:23:55;;;;;;;3.50;1.30;;;11.10;99.90;;;;;;5114840;28;20541;-62
2024/03/29 07:26:22;;;;;;;1.57;1.07;;;11.10;99.90;;;;;;5114505;28;20553;-62
2024/03/29 07:28:49;;;;;;;1.73;0.90;;;11.20;99.90;;;;;;5114796;28;20877;-62
2024/03/29 07:31:16;;;;;;;1.37;1.00;;;11.30;99.90;;;;;;5114684;28;20452;-62
2024/03/29 07:33:43;;;;;;;1.23;0.90;;;11.40;99.90;;;;;;5114491;28;20532;-62
2024/03/29 07:36:10;;;;;;;2.77;1.10;;;11.40;99.90;;;;;;5114416;28;21015;-62
2024/03/29 07:38:37;;;;;;;3.47;1.47;;;11.40;99.90;;;;;;5114312;28;20445;-62
2024/03/29 07:41:06;;;;;;;2.03;1.07;;;11.30;99.90;;;;;;5114158;28;20481;-62
2024/03/29 07:43:39;;;;;;;3.83;1.10;;;11.30;99.90;;;;;;5114482;28;20438;-61
2024/03/29 07:46:08;;;;;;;2.70;1.17;;;11.30;99.90;;;;;;5114108;28;20565;-62
2024/03/29 07:48:36;;;;;;;1.50;1.30;;;11.40;99.90;;;;;;5114053;28;20452;-62
2024/03/29 07:51:03;;;;;;;1.87;1.00;;;11.40;99.90;;;;;;5113999;28;20441;-62
2024/03/29 07:53:29;;;;;;;3.93;1.20;;;11.40;99.90;;;;;;5113569;28;20441;-62
2024/03/29 07:55:56;;;;;;;1.33;0.80;;;11.50;99.90;;;;;;5114003;28;20576;-62
2024/03/29 07:58:22;;;;;;;2.70;0.97;;;11.40;99.90;;;;;;5114309;28;20441;-62
2024/03/29 08:00:49;;;;;;;1.60;1.03;;;11.50;99.90;;;;;;5114014;28;20450;-62
2024/03/29 08:03:15;;;;;;;3.13;1.37;;;11.50;99.90;;;;;;5105080;28;20457;-62
2024/03/29 08:05:43;;;;;;;1.30;1.20;;;11.50;99.90;;;;;;5102859;27;20454;-62
2024/03/29 08:08:10;;;;;;;4.40;1.03;;;11.40;99.90;;;;;;5101572;27;20452;-62
2024/03/29 08:10:36;;;;;;;2.07;1.07;;;11.40;99.90;;;;;;5102018;27;20453;-62
2024/03/29 08:13:02;;;;;;;4.20;1.10;;;11.50;99.90;;;;;;5100498;28;20460;-62
2024/03/29 08:15:29;;;;;;;3.10;1.00;;;11.50;99.90;;;;;;5105731;28;20481;-62
2024/03/29 08:17:55;;;;;;;1.90;1.20;;;11.60;99.90;;;;;;5096901;28;20482;-62
2024/03/29 08:20:23;;;;;;;1.57;0.97;;;11.60;99.90;;;;;;5105400;28;20452;-63
2024/03/29 08:22:53;;;;;;;2.30;1.40;;;11.70;99.90;;;;;;5100473;28;20446;-62
2024/03/29 08:25:19;;;;;;;3.20;1.63;;;11.80;99.90;;;;;;5104018;28;20450;-62
2024/03/29 08:27:46;;;;;;;1.90;1.10;;;11.80;99.90;;;;;;5104350;28;20879;-62
2024/03/29 08:30:13;;;;;;;1.03;0.90;;;11.80;99.90;;;;;;5100989;28;20784;-61
2024/03/29 08:32:40;;;;;;;1.57;1.43;;;11.90;99.90;;;;;;5096023;28;20457;-62
2024/03/29 08:35:07;;;;;;;1.20;1.07;;;11.90;99.90;;;;;;5100076;28;20459;-62
2024/03/29 08:37:33;;;;;;;1.37;1.03;;;11.80;99.90;;;;;;5102361;28;20449;-62
2024/03/29 08:40:01;;;;;;;2.30;1.17;;;11.90;99.90;;;;;;5105046;28;20453;-62
2024/03/29 08:42:28;;;;;;;1.30;1.20;;;11.80;99.90;;;;;;5100964;28;20853;-62
2024/03/29 08:44:54;;;;;;;3.67;1.23;;;11.90;99.90;;;;;;5101031;28;21924;-62
2024/03/29 08:47:20;;;;;;;1.03;0.80;;;11.90;99.90;;;;;;5096203;28;20476;-62
2024/03/29 08:49:47;;;;;;;1.30;0.90;;;11.90;99.90;;;;;;5102126;28;20445;-62
2024/03/29 08:52:13;;;;;;;2.80;1.17;;;11.90;99.90;;;;;;5096591;28;20281;-61
2024/03/29 08:54:41;;;;;;;4.33;1.17;;;11.90;99.90;;;;;;5093078;28;20504;-62
2024/03/29 08:57:10;;;;;;;1.93;1.27;;;11.90;99.90;;;;;;5092875;28;20482;-62
2024/03/29 08:59:37;;;;;;;2.60;1.17;;;11.90;99.90;;;;;;5092906;28;20533;-62
2024/03/29 09:02:06;;;;;;;6.77;1.80;;;12.00;99.90;;;;;;5092818;28;20834;-62
2024/03/29 09:04:34;;;;;;;1.37;1.23;;;12.00;99.90;;;;;;5093929;28;20798;-62
2024/03/29 09:07:01;;;;;;;3.43;0.90;;;12.20;99.90;;;;;;5096936;28;20451;-62
2024/03/29 09:09:28;;;;;;;2.60;1.00;;;12.20;99.90;;;;;;5096925;28;20499;-62
2024/03/29 09:11:54;;;;;;;4.87;1.10;;;12.20;99.90;;;;;;5096800;28;20442;-62
2024/03/29 09:14:23;;;;;;;1.10;1.00;;;12.30;99.90;;;;;;5096704;28;20447;-62
2024/03/29 09:16:50;;;;;;;2.30;1.17;;;12.30;99.90;;;;;;5096467;28;20478;-62
2024/03/29 09:19:17;;;;;;;2.20;1.20;;;12.40;99.90;;;;;;5096818;28;20453;-62
2024/03/29 09:21:43;;;;;;;1.00;0.90;;;12.50;99.90;;;;;;5096622;28;20537;-62
2024/03/29 09:24:10;;;;;;;4.00;1.03;;;12.70;99.90;;;;;;5096617;28;20443;-62
2024/03/29 09:26:37;;;;;;;1.13;0.90;;;12.80;99.90;;;;;;5096643;28;20446;-62
2024/03/29 09:29:03;;;;;;;1.00;0.90;;;13.00;99.90;;;;;;5096711;28;20482;-62
2024/03/29 09:31:31;;;;;;;8.03;4.50;;;13.10;99.90;;;;;;5096267;28;20474;-62
2024/03/29 09:33:58;;;;;;;5.53;4.30;;;13.20;99.90;;;;;;5096629;28;20444;-62
2024/03/29 09:36:24;;;;;;;3.80;2.60;;;13.30;99.90;;;;;;5096184;28;21004;-62
2024/03/29 09:38:51;;;;;;;1.90;1.20;;;13.20;99.90;;;;;;5096372;28;20445;-62
2024/03/29 09:41:19;;;;;;;1.97;1.20;;;13.30;99.90;;;;;;5096294;28;20456;-62
2024/03/29 09:43:47;;;;;;;2.07;0.80;;;13.40;99.90;;;;;;5095977;28;20460;-62
2024/03/29 09:46:14;;;;;;;1.40;0.90;;;13.50;99.90;;;;;;5096063;28;21041;-62
2024/03/29 09:48:45;;;;;;;4.43;1.57;;;13.70;99.90;;;;;;5096321;28;20442;-62
2024/03/29 09:51:13;;;;;;;1.40;0.90;;;13.90;99.90;;;;;;5096194;28;20522;-62
2024/03/29 09:53:42;;;;;;;1.70;1.07;;;13.90;99.90;;;;;;5095957;28;20443;-62
2024/03/29 09:56:10;;;;;;;1.77;1.00;;;14.00;99.90;;;;;;5095823;28;20482;-62
2024/03/29 09:58:37;;;;;;;3.30;1.43;;;14.10;99.90;;;;;;5095743;28;20547;-62
2024/03/29 10:01:05;;;;;;;1.13;1.00;;;14.00;99.90;;;;;;5096004;28;20443;-62
2024/03/29 10:03:33;;;;;;;1.50;1.00;;;14.00;99.90;;;;;;5095977;28;20454;-62
2024/03/29 10:06:02;;;;;;;1.70;1.00;;;14.00;99.90;;;;;;5096190;28;20460;-62
2024/03/29 10:08:30;;;;;;;1.00;0.90;;;14.00;99.90;;;;;;5095665;28;20533;-62
2024/03/29 10:10:56;;;;;;;1.10;0.90;;;14.10;99.90;;;;;;5095550;28;20853;-62
2024/03/29 10:13:23;;;;;;;3.37;1.37;;;14.20;99.90;;;;;;5095788;28;20545;-62
2024/03/29 10:15:51;;;;;;;4.73;1.07;;;14.20;99.90;;;;;;5095263;28;20530;-62
2024/03/29 10:18:19;;;;;;;1.90;0.93;;;14.20;99.90;;;;;;5095539;28;20450;-62
2024/03/29 10:20:46;;;;;;;2.20;1.03;;;14.40;99.90;;;;;;5095505;28;20442;-62
2024/03/29 10:23:15;;;;;;;1.90;1.00;;;14.30;99.90;;;;;;5095259;28;21006;-62
2024/03/29 10:25:44;;;;;;;6.83;1.47;;;14.40;99.90;;;;;;5095239;28;20546;-62
2024/03/29 10:28:11;;;;;;;3.83;1.00;;;14.50;99.90;;;;;;5095474;28;20438;-62
2024/03/29 10:30:39;;;;;;;1.77;1.10;;;14.40;99.90;;;;;;5095681;28;20533;-62
2024/03/29 10:33:06;;;;;;;0.80;0.80;;;14.20;99.90;;;;;;5095306;28;20521;-62
2024/03/29 10:35:32;;;;;;;1.67;1.00;;;14.10;99.90;;;;;;5095170;28;20900;-62
2024/03/29 10:37:59;;;;;;;1.90;1.03;;;13.90;99.90;;;;;;5094885;28;20482;-62
2024/03/29 10:40:27;;;;;;;1.30;1.03;;;13.90;99.90;;;;;;5094957;28;20959;-62
2024/03/29 10:42:53;;;;;;;2.83;1.17;;;13.90;99.90;;;;;;5095057;28;21017;-62
2024/03/29 10:45:22;;;;;;;1.63;1.20;;;13.80;99.90;;;;;;5094881;28;20878;-62
2024/03/29 10:47:49;;;;;;;1.33;0.90;;;13.60;99.90;;;;;;5095015;28;20898;-63
2024/03/29 10:50:20;;;;;;;3.27;1.20;;;13.70;99.90;;;;;;5094934;28;21018;-62
2024/03/29 10:52:48;;;;;;;3.43;1.10;;;13.60;99.90;;;;;;5094799;28;20497;-62
2024/03/29 10:55:15;;;;;;;1.63;1.00;;;13.50;99.90;;;;;;5094941;28;20442;-62
2024/03/29 10:57:44;;;;;;;2.10;1.07;;;13.60;99.90;;;;;;5094741;28;20577;-62
2024/03/29 11:00:14;;;;;;;1.27;0.80;;;13.60;99.90;;;;;;5094784;28;20802;-62
2024/03/29 11:02:50;;;;;;;1.00;0.90;;;13.50;99.90;;;;;;5094660;28;20813;-62
2024/03/29 11:05:17;;;;;;;1.43;0.90;;;13.40;99.90;;;;;;5094575;28;20442;-62
2024/03/29 11:07:45;;;;;;;1.93;0.83;;;13.70;99.90;;;;;;5094686;28;20447;-62
2024/03/29 11:10:21;;;;;;;1.90;0.90;;;13.90;99.90;;;;;;5094490;28;21004;-62
2024/03/29 11:13:00;;;;;;;0.90;0.80;;;14.20;99.90;;;;;;5094499;28;20507;-62
2024/03/29 11:15:30;;;;;;;1.00;0.80;;;14.30;99.90;;;;;;5094676;28;20452;-62
2024/03/29 11:17:57;;;;;;;1.07;0.90;;;14.30;99.90;;;;;;5094207;28;21000;-62
2024/03/29 11:20:33;;;;;;;0.90;0.70;;;14.30;99.90;;;;;;5094463;28;20802;-62
2024/03/29 11:23:05;;;;;;;1.27;0.80;;;14.50;99.90;;;;;;5094278;28;20450;-62
2024/03/29 11:25:39;;;;;;;3.53;1.20;;;14.30;99.90;;;;;;5094293;28;20529;-62
2024/03/29 11:28:08;;;;;;;2.40;0.97;;;14.30;99.90;;;;;;5093308;28;20472;-62
2024/03/29 11:30:41;;;;;;;1.30;1.10;;;14.30;99.90;;;;;;5094300;28;20456;-62
2024/03/29 11:33:07;;;;;;;1.23;0.73;;;14.40;99.90;;;;;;5094509;28;20539;-62
2024/03/29 11:35:33;;;;;;;2.30;0.70;;;14.60;99.90;;;;;;5094195;28;20537;-62
2024/03/29 11:38:00;;;;;;;2.53;0.70;;;14.70;99.90;;;;;;5093893;28;20485;-62
2024/03/29 11:40:30;;;;;;;1.93;0.80;;;14.80;99.90;;;;;;5093965;28;20443;-62
2024/03/29 11:42:57;;;;;;;3.93;0.93;;;14.70;99.90;;;;;;5094101;28;20534;-62
2024/03/29 11:45:27;;;;;;;1.00;0.70;;;14.80;99.90;;;;;;5093835;28;20445;-62
2024/03/29 11:47:55;;;;;;;1.57;0.80;;;14.90;99.90;;;;;;5093902;28;20457;-62
2024/03/29 11:50:22;;;;;;;1.03;0.70;;;15.10;99.90;;;;;;5093796;28;20533;-62
2024/03/29 11:52:49;;;;;;;0.83;0.83;;;15.10;99.90;;;;;;5093779;28;20505;-62
2024/03/29 11:55:15;;;;;;;1.33;0.80;;;15.10;99.90;;;;;;5093565;28;20468;-62
2024/03/29 11:57:42;;;;;;;0.70;0.70;;;15.20;99.90;;;;;;5093491;28;20535;-62
2024/03/29 12:00:10;;;;;;;0.90;0.60;;;15.10;99.90;;;;;;5093837;28;20529;-62
2024/03/29 12:02:40;;;;;;;2.07;0.80;;;15.10;99.90;;;;;;5093557;28;20455;-62
2024/03/29 12:05:09;;;;;;;1.00;0.90;;;15.10;99.90;;;;;;5093439;28;20526;-62
2024/03/29 12:07:36;;;;;;;0.90;0.70;;;15.10;99.90;;;;;;5093397;28;20852;-62
2024/03/29 12:10:02;;;;;;;1.37;0.83;;;15.20;99.90;;;;;;5093669;28;20445;-62
2024/03/29 12:12:34;;;;;;;1.50;0.93;;;15.20;99.90;;;;;;5093579;28;20536;-62
2024/03/29 12:15:00;;;;;;;1.03;0.93;;;15.20;99.90;;;;;;5093485;28;20446;-62
2024/03/29 12:17:27;;;;;;;1.93;0.90;;;15.20;99.90;;;;;;5093453;28;20479;-62
2024/03/29 12:20:04;;;;;;;1.30;0.80;;;14.90;99.90;;;;;;5093279;28;20530;-62
2024/03/29 12:22:30;;;;;;;1.17;0.77;;;15.00;99.90;;;;;;5093475;28;20579;-62
2024/03/29 12:24:57;;;;;;;1.70;0.80;;;15.00;99.90;;;;;;5093250;28;20491;-62
2024/03/29 12:27:24;;;;;;;1.10;0.80;;;15.10;99.90;;;;;;5093265;28;20444;-62
2024/03/29 12:29:51;;;;;;;2.13;0.70;;;15.20;99.90;;;;;;5093202;28;20443;-62
2024/03/29 12:32:20;;;;;;;2.10;0.80;;;15.20;99.90;;;;;;5093047;28;20534;-62
2024/03/29 12:34:47;;;;;;;1.00;0.70;;;15.40;99.90;;;;;;5093052;28;20958;-62
2024/03/29 12:37:16;;;;;;;1.23;0.77;;;15.50;99.90;;;;;;5093185;28;20977;-62
2024/03/29 12:39:42;;;;;;;0.70;0.70;;;15.70;99.90;;;;;;5093064;28;20448;-62
2024/03/29 12:42:09;;;;;;;0.80;0.63;;;15.80;99.90;;;;;;5093120;28;20449;-62
2024/03/29 12:44:36;;;;;;;8.50;1.30;;;15.90;99.90;;;;;;5093070;28;20441;-62
2024/03/29 12:47:04;;;;;;;1.37;0.97;;;16.10;99.90;;;;;;5093051;28;20479;-62
2024/03/29 12:49:31;;;;;;;4.30;0.70;;;16.30;99.90;;;;;;5092895;28;20520;-62
2024/03/29 12:51:57;;;;;;;0.77;0.60;;;16.40;99.90;;;;;;5093078;28;20455;-62
2024/03/29 12:54:26;;;;;;;0.80;0.60;;;16.50;99.90;;;;;;5092989;28;20456;-62
2024/03/29 12:56:54;;;;;;;0.90;0.80;;;16.50;99.90;;;;;;5092906;28;20473;-62
2024/03/29 12:59:21;;;;;;;1.77;0.80;;;16.80;99.90;;;;;;5093145;28;20452;-62
2024/03/29 13:01:47;;;;;;;1.00;0.70;;;16.90;99.90;;;;;;5092749;28;20446;-62
2024/03/29 13:04:13;;;;;;;1.53;1.00;;;17.10;99.90;;;;;;5092953;28;20581;-62
2024/03/29 13:06:40;;;;;;;1.20;0.70;;;17.20;99.90;;;;;;5092866;28;20541;-62
2024/03/29 13:09:07;;;;;;;1.93;0.80;;;17.20;99.90;;;;;;5092910;28;20552;-62
2024/03/29 13:11:35;;;;;;;1.10;0.80;;;17.30;99.90;;;;;;5092709;28;20450;-62
2024/03/29 13:14:02;;;;;;;1.07;0.70;;;17.10;99.90;;;;;;5092848;28;20445;-62
2024/03/29 13:16:28;;;;;;;0.80;0.70;;;17.20;99.90;;;;;;5092541;28;20942;-62
2024/03/29 13:18:55;;;;;;;1.10;0.63;;;17.10;99.90;;;;;;5092968;28;20453;-62
2024/03/29 13:21:21;;;;;;;1.87;0.70;;;17.10;99.90;;;;;;5092798;28;20449;-63
2024/03/29 13:23:48;;;;;;;1.43;0.80;;;17.10;99.90;;;;;;5092700;28;20809;-62
2024/03/29 13:26:14;;;;;;;2.07;1.00;;;17.00;99.90;;;;;;5092650;28;20448;-62
2024/03/29 13:28:42;;;;;;;1.50;0.70;;;17.00;99.90;;;;;;5092611;28;20499;-62
2024/03/29 13:31:09;;;;;;;1.20;0.80;;;16.90;99.90;;;;;;5092375;28;20484;-62
2024/03/29 13:33:35;;;;;;;0.90;0.70;;;16.80;99.90;;;;;;5092727;28;20438;-62
2024/03/29 13:36:02;;;;;;;3.43;0.80;;;16.70;99.90;;;;;;5092441;28;20980;-62
2024/03/29 13:38:29;;;;;;;1.27;0.80;;;16.60;99.90;;;;;;5092440;28;20489;-62
2024/03/29 13:40:56;;;;;;;1.63;0.80;;;16.50;99.30;;;;;;5092572;28;20478;-62
2024/03/29 13:43:23;;;;;;;1.77;0.90;;;16.60;99.90;;;;;;5092863;28;20507;-62
2024/03/29 13:45:51;;;;;;;0.70;0.60;;;16.60;99.90;;;;;;5092249;28;21044;-62
2024/03/29 13:48:18;;;;;;;1.77;0.90;;;16.70;99.90;;;;;;5092514;28;20450;-62
2024/03/29 13:50:45;;;;;;;1.53;0.90;;;16.80;99.60;;;;;;5093563;28;20474;-62
2024/03/29 13:53:13;;;;;;;1.73;0.70;;;16.80;98.70;;;;;;5096013;28;20445;-62
2024/03/29 13:55:39;;;;;;;1.88;0.90;;;16.80;98.40;;;;;;5095590;28;20444;-62
2024/03/29 13:58:06;;;;;;;2.60;1.00;;;16.80;98.20;;;;;;5095838;28;20307;-62
2024/03/29 14:00:33;;;;;;;2.20;1.00;;;16.80;98.10;;;;;;5096149;28;20536;-62
2024/03/29 14:03:02;;;;;;;0.90;0.80;;;16.80;97.20;;;;;;5096037;28;20448;-62
2024/03/29 14:05:29;;;;;;;1.00;0.70;;;16.80;96.50;;;;;;5095932;28;20504;-63
2024/03/29 14:07:55;;;;;;;1.23;0.80;;;16.90;97.40;;;;;;5095807;28;20442;-62
2024/03/29 14:10:22;;;;;;;1.07;0.80;;;16.90;97.20;;;;;;5095800;28;20446;-62
2024/03/29 14:12:51;;;;;;;4.80;1.10;;;16.90;97.10;;;;;;5095688;28;20478;-62
2024/03/29 14:15:18;;;;;;;1.40;0.80;;;17.00;97.40;;;;;;5095970;28;20892;-62
2024/03/29 14:17:44;;;;;;;1.00;0.80;;;17.20;97.40;;;;;;5095653;28;20872;-62
2024/03/29 14:20:12;;;;;;;1.97;1.13;;;17.40;96.40;;;;;;5095639;28;20523;-62
2024/03/29 14:22:39;;;;;;;0.90;0.80;;;17.30;96.50;;;;;;5095548;28;20529;-62
2024/03/29 14:25:10;;;;;;;2.60;0.90;;;17.30;96.00;;;;;;5095207;28;20446;-62
2024/03/29 14:27:43;;;;;;;1.60;1.00;;;17.50;96.40;;;;;;5095582;28;20451;-62
2024/03/29 14:30:11;;;;;;;1.23;1.00;;;17.40;96.20;;;;;;5095356;28;20446;-62
2024/03/29 14:32:37;;;;;;;3.93;0.87;;;17.40;96.00;;;;;;5095300;28;20443;-62
2024/03/29 14:35:04;;;;;;;1.20;1.10;;;17.50;95.70;;;;;;5095186;28;20911;-62
2024/03/29 14:37:32;;;;;;;1.10;0.90;;;17.40;95.00;;;;;;5094933;28;20506;-63
2024/03/29 14:39:59;;;;;;;2.33;1.30;;;17.40;95.00;;;;;;5095261;28;20789;-62